createdAt,value
2023-05-03T00:04:59.597Z,103023.47
2023-05-03T00:10:06.894Z,103024.41
2023-05-03T00:15:10.777Z,103029.59
2023-05-03T00:20:13.683Z,103023.31
2023-05-03T00:25:18.066Z,103015.66
2023-05-03T00:30:21.492Z,103012.88
2023-05-03T00:35:24.398Z,103012.81
2023-05-03T00:40:29.072Z,103010.09
2023-05-03T00:45:32.133Z,103015.25
2023-05-03T00:50:35.056Z,103016.81
2023-05-03T00:55:39.866Z,103021.06
2023-05-03T01:00:43.024Z,103014.03
2023-05-03T01:05:53.113Z,103020.16
2023-05-03T01:11:03.824Z,103015.09
2023-05-03T01:16:12.768Z,103028.19
2023-05-03T01:21:18.585Z,103009.97
2023-05-03T01:26:23.965Z,103008.25
2023-05-03T01:31:31.180Z,103010.16
2023-05-03T01:36:35.653Z,103000.38
2023-05-03T01:41:41.765Z,102997.09
2023-05-03T01:46:45.182Z,102988.16
2023-05-03T01:51:49.887Z,102990.47
2023-05-03T01:56:55.394Z,102981.72
2023-05-03T02:01:58.208Z,102967.78
2023-05-03T02:07:01.089Z,102957.94
2023-05-03T02:12:05.677Z,102944.88
2023-05-03T02:17:08.870Z,102940.41
2023-05-03T02:22:11.690Z,102934.56
2023-05-03T02:27:15.941Z,102939.91
2023-05-03T02:32:20.456Z,102947.84
2023-05-03T02:37:23.491Z,102947.91
2023-05-03T02:42:27.790Z,102959.13
2023-05-03T02:47:31.804Z,102970.38
2023-05-03T02:52:35.503Z,102972.97
2023-05-03T02:57:42.260Z,102980.81
2023-05-03T03:02:46.136Z,102975.66
2023-05-03T03:07:49.073Z,102974.78
2023-05-03T03:12:54.250Z,102993.94
2023-05-03T03:18:06.965Z,102981.09
2023-05-03T03:23:09.998Z,102995.97
2023-05-03T03:28:14.231Z,102998.72
2023-05-03T03:33:17.546Z,102991.78
2023-05-03T03:38:21.158Z,102984.16
2023-05-03T03:43:33.162Z,102985.25
2023-05-03T03:48:38.070Z,102982.81
2023-05-03T03:53:41.654Z,102982.13
2023-05-03T03:58:46.708Z,102986.63
2023-05-03T04:03:49.851Z,102995.31
2023-05-03T04:08:53.492Z,103005.06
2023-05-03T04:13:57.760Z,103009.50
2023-05-03T04:19:02.470Z,103012.00
2023-05-03T04:24:09.173Z,103018.09
2023-05-03T04:29:13.956Z,103007.78
2023-05-03T04:34:19.000Z,103007.78
2023-05-03T04:39:25.104Z,103003.47
2023-05-03T04:44:30.437Z,103007.72
2023-05-03T04:49:34.681Z,103012.91
2023-05-03T04:54:37.485Z,103013.84
2023-05-03T04:59:41.776Z,103023.31
2023-05-03T05:04:45.758Z,103029.41
2023-05-03T05:09:48.894Z,103027.78
2023-05-03T05:14:54.216Z,103018.34
2023-05-03T05:19:57.247Z,103015.84
2023-05-03T05:25:01.615Z,103022.16
2023-05-03T05:30:08.547Z,103021.47
2023-05-03T05:35:13.224Z,103016.47
2023-05-03T05:40:16.388Z,103027.16
2023-05-03T05:45:25.928Z,103020.47
2023-05-03T05:50:31.489Z,103027.50
2023-05-03T05:55:38.665Z,103027.50
2023-05-03T06:00:44.249Z,103022.50
2023-05-03T06:05:49.302Z,103028.41
2023-05-03T06:10:53.126Z,103019.19
2023-05-03T06:15:58.287Z,103032.94
2023-05-03T06:21:01.218Z,103042.00
2023-05-03T06:26:04.801Z,103044.84
2023-05-03T06:31:10.257Z,103040.56
2023-05-03T06:36:14.030Z,103026.75
2023-05-03T06:41:18.581Z,103025.72
2023-05-03T06:46:23.032Z,103017.38
2023-05-03T06:51:28.241Z,103012.66
2023-05-03T06:56:32.741Z,103000.38
2023-05-03T07:01:37.110Z,102998.72
2023-05-03T07:06:52.473Z,103004.56
2023-05-03T07:11:58.677Z,102990.66
2023-05-03T07:17:03.052Z,102989.72
2023-05-03T07:22:05.938Z,102985.38
2023-05-03T07:27:08.890Z,102987.91
2023-05-03T07:32:13.334Z,102993.22
2023-05-03T07:37:16.292Z,102988.88
2023-05-03T07:42:19.487Z,102983.00
2023-05-03T07:47:23.851Z,102983.88
2023-05-03T07:52:26.832Z,102981.34
2023-05-03T07:57:29.869Z,102981.31
2023-05-03T08:02:34.157Z,102975.97
2023-05-03T08:07:37.095Z,102983.81
2023-05-03T08:12:40.034Z,102991.56
2023-05-03T08:17:45.815Z,103001.00
2023-05-03T08:22:48.761Z,103009.81
2023-05-03T08:27:51.778Z,103007.03
2023-05-03T08:32:56.354Z,103015.69
2023-05-03T08:37:59.282Z,103021.50
2023-05-03T08:43:08.705Z,103015.22
2023-05-03T08:48:13.993Z,103013.28
2023-05-03T08:53:16.930Z,103015.06
2023-05-03T08:58:19.786Z,103007.34
2023-05-03T09:03:24.216Z,103005.59
2023-05-03T09:08:28.095Z,103000.28
2023-05-03T09:13:31.985Z,102995.09
2023-05-03T09:18:36.314Z,103010.91
2023-05-03T09:23:39.136Z,102998.84
2023-05-03T09:28:42.901Z,102999.66
2023-05-03T09:33:47.252Z,102997.03
2023-05-03T09:38:50.991Z,103000.44
2023-05-03T09:43:55.871Z,103010.88
2023-05-03T09:49:01.196Z,103015.34
2023-05-03T09:54:04.586Z,103006.72
2023-05-03T09:59:07.658Z,102996.19
2023-05-03T10:04:12.216Z,103002.16
2023-05-03T10:09:20.882Z,102991.41
2023-05-03T10:14:24.351Z,102998.63
2023-05-03T10:19:32.368Z,102996.56
2023-05-03T10:24:36.175Z,102999.22
2023-05-03T10:29:49.803Z,102993.13
2023-05-03T10:34:58.877Z,102993.25
2023-05-03T10:40:10.239Z,102988.66
2023-05-03T10:45:22.982Z,102984.41
2023-05-03T10:50:28.568Z,102972.03
2023-05-03T10:55:31.403Z,102973.00
2023-05-03T11:00:39.088Z,102967.84
2023-05-03T11:05:43.480Z,102961.53
2023-05-03T11:10:47.039Z,102963.47
2023-05-03T11:15:49.930Z,102957.31
2023-05-03T11:20:54.576Z,102951.47
2023-05-03T11:25:58.092Z,102953.50
2023-05-03T11:31:02.122Z,102943.03
2023-05-03T11:36:08.333Z,102929.03
2023-05-03T11:41:14.255Z,102937.56
2023-05-03T11:46:19.424Z,102922.81
2023-05-03T11:51:24.917Z,102928.91
2023-05-03T11:56:27.901Z,102909.63
2023-05-03T12:01:31.128Z,102927.50
2023-05-03T12:06:36.503Z,102914.25
2023-05-03T12:11:45.081Z,102909.75
2023-05-03T12:16:50.925Z,102897.47
2023-05-03T12:22:18.200Z,102889.88
2023-05-03T12:27:19.513Z,102881.53
2023-05-03T12:32:23.254Z,102885.81
2023-05-03T12:37:28.227Z,102882.28
2023-05-03T12:42:33.829Z,102870.75
2023-05-03T12:47:38.142Z,102875.50
2023-05-03T12:52:45.429Z,102867.88
2023-05-03T12:58:05.967Z,102868.38
2023-05-03T13:03:20.614Z,102852.94
2023-05-03T13:08:33.514Z,102851.41
2023-05-03T13:13:37.926Z,102850.19
2023-05-03T13:18:42.736Z,102839.66
2023-05-03T13:23:47.986Z,102832.75
2023-05-03T13:28:51.264Z,102823.31
2023-05-03T13:33:55.173Z,102819.78
2023-05-03T13:38:59.746Z,102813.44
2023-05-03T13:44:02.709Z,102803.78
2023-05-03T13:49:07.362Z,102795.06
2023-05-03T13:54:11.707Z,102788.06
2023-05-03T13:59:15.054Z,102773.34
2023-05-03T14:04:18.030Z,102770.75
2023-05-03T14:09:22.357Z,102764.94
2023-05-03T14:14:27.963Z,102755.66
2023-05-03T14:19:30.943Z,102764.09
2023-05-03T14:24:35.208Z,102745.03
2023-05-03T14:29:38.017Z,102742.38
2023-05-03T14:34:40.928Z,102735.34
2023-05-03T14:39:45.357Z,102737.06
2023-05-03T14:44:48.321Z,102727.28
2023-05-03T14:49:52.122Z,102717.53
2023-05-03T14:54:56.484Z,102702.63
2023-05-03T14:59:59.472Z,102694.69
2023-05-03T15:05:03.614Z,102704.78
2023-05-03T15:10:10.099Z,102688.50
2023-05-03T15:15:13.083Z,102681.00
2023-05-03T15:20:16.703Z,102670.78
2023-05-03T15:25:21.033Z,102674.72
2023-05-03T15:30:23.863Z,102676.06
2023-05-03T15:35:27.249Z,102671.59
2023-05-03T15:40:32.074Z,102667.59
2023-05-03T15:45:34.931Z,102672.38
2023-05-03T15:50:38.203Z,102660.31
2023-05-03T15:55:42.666Z,102663.69
2023-05-03T16:00:45.564Z,102656.09
2023-05-03T16:05:48.685Z,102645.31
2023-05-03T16:10:52.991Z,102650.38
2023-05-03T16:15:57.001Z,102648.38
2023-05-03T16:21:03.350Z,102642.16
2023-05-03T16:26:14.487Z,102631.47
2023-05-03T16:31:17.839Z,102633.00
2023-05-03T16:36:20.815Z,102626.88
2023-05-03T16:41:25.339Z,102630.13
2023-05-03T16:46:28.273Z,102621.56
2023-05-03T16:51:31.653Z,102623.19
2023-05-03T16:56:36.009Z,102606.13
2023-05-03T17:01:39.297Z,102611.16
2023-05-03T17:06:42.293Z,102610.69
2023-05-03T17:11:47.139Z,102617.56
2023-05-03T17:16:51.137Z,102605.84
2023-05-03T17:21:53.995Z,102608.94
2023-05-03T17:26:58.254Z,102604.09
2023-05-03T17:32:01.420Z,102606.44
2023-05-03T17:37:05.557Z,102599.19
2023-05-03T17:42:10.126Z,102608.53
2023-05-03T17:47:13.038Z,102610.44
2023-05-03T17:52:16.715Z,102618.09
2023-05-03T17:57:21.593Z,102625.34
2023-05-03T18:02:24.549Z,102619.19
2023-05-03T18:07:27.939Z,102617.59
2023-05-03T18:12:32.491Z,102622.06
2023-05-03T18:17:35.541Z,102606.38
2023-05-03T18:22:38.473Z,102606.63
2023-05-03T18:27:42.673Z,102611.03
2023-05-03T18:32:45.496Z,102619.84
2023-05-03T18:37:48.429Z,102623.41
2023-05-03T18:42:52.701Z,102610.38
2023-05-03T18:47:56.736Z,102610.44
2023-05-03T18:52:59.586Z,102615.78
2023-05-03T18:58:04.646Z,102617.59
2023-05-03T19:03:09.060Z,102618.53
2023-05-03T19:08:12.234Z,102615.09
2023-05-03T19:13:16.990Z,102609.88
2023-05-03T19:18:19.848Z,102612.53
2023-05-03T19:23:23.367Z,102615.16
2023-05-03T19:28:27.633Z,102616.94
2023-05-03T19:33:30.484Z,102613.44
2023-05-03T19:38:33.761Z,102616.06
2023-05-03T19:43:38.054Z,102610.88
2023-05-03T19:48:41.019Z,102620.50
2023-05-03T19:53:44.435Z,102629.22
2023-05-03T19:58:50.695Z,102625.75
2023-05-03T20:03:54.974Z,102623.09
2023-05-03T20:08:58.088Z,102611.78
2023-05-03T20:14:02.302Z,102617.00
2023-05-03T20:19:05.261Z,102614.41
2023-05-03T20:24:10.865Z,102621.38
2023-05-03T20:29:15.635Z,102613.53
2023-05-03T20:34:18.496Z,102616.13
2023-05-03T20:39:21.436Z,102620.50
2023-05-03T20:44:25.722Z,102616.06
2023-05-03T20:49:28.575Z,102612.66
2023-05-03T20:54:31.534Z,102618.75
2023-05-03T20:59:36.077Z,102611.78
2023-05-03T21:04:39.005Z,102603.84
2023-05-03T21:09:41.789Z,102602.06
2023-05-03T21:14:46.036Z,102592.47
2023-05-03T21:19:48.918Z,102594.22
2023-05-03T21:24:52.184Z,102588.16
2023-05-03T21:29:56.468Z,102589.03
2023-05-03T21:34:59.346Z,102587.31
2023-05-03T21:40:03.019Z,102595.94
2023-05-03T21:45:09.363Z,102585.47
2023-05-03T21:50:12.974Z,102581.97
2023-05-03T21:55:15.864Z,102576.69
2023-05-03T22:00:20.895Z,102562.69
2023-05-03T22:05:24.413Z,102551.34
2023-05-03T22:10:27.408Z,102542.56
2023-05-03T22:15:33.503Z,102542.66
2023-05-03T22:20:36.374Z,102536.50
2023-05-03T22:25:39.202Z,102539.97
2023-05-03T22:30:43.511Z,102532.13
2023-05-03T22:35:46.371Z,102533.88
2023-05-03T22:40:49.309Z,102531.25
2023-05-03T22:45:53.712Z,102524.31
2023-05-03T22:50:56.601Z,102533.00
2023-05-03T22:56:00.819Z,102523.44
2023-05-03T23:01:05.643Z,102524.28
2023-05-03T23:06:08.678Z,102524.31
2023-05-03T23:11:11.836Z,102524.28
2023-05-03T23:16:16.067Z,102529.38
2023-05-03T23:21:19.314Z,102519.00
2023-05-03T23:26:22.293Z,102513.78
2023-05-03T23:31:28.060Z,102510.38
2023-05-03T23:36:34.150Z,102499.84
2023-05-03T23:41:37.068Z,102504.13
2023-05-03T23:46:41.306Z,102503.28
2023-05-03T23:51:44.208Z,102497.97
2023-05-03T23:56:47.115Z,102485.69
